• Join FlightAware (Why Join?)
  • Login
  • US Flag 
11:33AM EST


 

Airport Tracker/Info


-or-


 

Live Flight TrackerFlight Track Log ✈ SWA1377 ✈ 13-Jul-2013 ✈ KLAX - KLAS

Flight Track Log - Related Links

Times and Time Zones

All times are in EDT time to prevent confusion due to time zone crossing. See the SWA1377 flight status page for this flight to view local times or setup timezone preferences in your user account.

Time Position Orientation Groundspeed Altitude Reporting Facility
EDT Latitude Longitude Course Direction KTS MPH feet Rate Location/Type
04:53PM 33.9392 -118.5178 264° West 203 234 3,400  Level Los Angeles Center
04:55PM 33.9169 -118.5806 247° West 260 299 5,200 2,903 Climbing Los Angeles Center
04:56PM 33.8578 -118.5181 139° Southeast 294 338 9,400 3,290 Climbing Los Angeles Center
04:57PM 33.9147 -118.4506 45° Northeast 320 368 12,000 2,758 Climbing Los Angeles Center
04:58PM 33.9753 -118.3594 51° Northeast 346 398 15,100 2,880 Climbing Los Angeles Center
04:59PM 34.0336 -118.2564 56° Northeast 364 419 18,000 2,880 Climbing Los Angeles Center
05:00PM 34.1083 -118.1244 56° Northeast 389 448 21,100 2,516 Climbing Los Angeles Center
05:01PM 34.1728 -118.0100 56° Northeast 406 467 23,200 1,984 Climbing Los Angeles Center
05:02PM 34.2408 -117.8881 56° Northeast 433 498 25,200 2,129 Climbing Los Angeles Center
05:03PM 34.3100 -117.7653 56° Northeast 440 506 27,600 1,854 Climbing Los Angeles Center
05:04PM 34.3647 -117.6669 56° Northeast 441 507 29,000 677 Climbing Los Angeles Center
05:05PM 34.4536 -117.5047 56° Northeast 459 528 29,000  Level Los Angeles Center
05:06PM 34.5267 -117.3742 56° Northeast 468 539 29,000  Level Los Angeles Center
05:07PM 34.5992 -117.2428 56° Northeast 471 542 29,000  Level Los Angeles Center
05:08PM 34.6850 -117.0847 57° Northeast 472 543 29,000  Level Los Angeles Center
05:09PM 34.7711 -116.9261 57° Northeast 472 543 29,000  Level Los Angeles Center
05:10PM 34.8581 -116.7681 56° Northeast 472 543 29,000 -288 Level Los Angeles Center
05:11PM 34.9275 -116.6383 57° Northeast 465 535 28,400 -1,548 Descending Los Angeles Center
05:13PM 35.0239 -116.4983 50° Northeast 457 526 25,800 -2,129 Descending Los Angeles Center
05:14PM 35.1097 -116.3919 45° Northeast 449 517 24,000 -871 Descending Los Angeles Center
05:15PM 35.1947 -116.2861 45° Northeast 443 510 24,000 -726 Level Los Angeles Center
05:16PM 35.2792 -116.1800 46° Northeast 438 504 22,500 -1,790 Descending Los Angeles Center
05:17PM 35.3600 -116.0761 46° Northeast 429 494 20,300 -2,167 Descending Los Angeles Center
05:17PM 35.4289 -115.9936 44° Northeast 427 491 18,600 -2,147 Descending Los Angeles Center
05:18PM 35.4958 -115.9119 45° Northeast 406 467 16,900 -1,823 Descending Los Angeles Center
05:19PM 35.5194 -115.8747 52° Northeast 398 458 16,200 -1,869 Descending Los Angeles Center
05:19PM 35.5683 -115.8178 43° Northeast 384 442 15,000 -2,129 Descending Los Angeles Center
05:20PM 35.6061 -115.7656 48° Northeast 376 433 14,000 -1,226 Descending Los Angeles Center
05:21PM 35.6728 -115.6786 47° Northeast 357 411 13,100 -823 Descending Los Angeles Center
05:22PM 35.7039 -115.5842 68° East 310 357 12,300 -774 Descending Los Angeles Center
05:23PM 35.7478 -115.5103 54° Northeast 278 320 11,500 -1,161 Descending Los Angeles Center
05:24PM 35.8108 -115.4672 29° Northeast 266 306 9,900 -1,597 Descending Los Angeles Center
05:25PM 35.8864 -115.4125 30° Northeast 264 304 8,200 -1,355 Descending Los Angeles Center
05:26PM 35.9464 -115.3692 30° Northeast 259 298 7,100 -1,161 Descending Los Angeles Center
05:27PM 36.0039 -115.3292 29° Northeast 250 288 5,800 -871 Descending Los Angeles Center
05:28PM 36.0539 -115.2978 27° Northeast 243 280 5,300 -972 Descending Los Angeles Center
05:29PM 36.0719 -115.2386 69° East 150 173 3,500 -1,149 Descending Los Angeles Center
05:30PM 36.0733 -115.1850 88° East 169 194 2,600 -885 Descending Los Angeles Center
05:33PM 36.0801 -115.1523 76° East  Level Estimated